Time;durP1;ratioP1;P1;durP2;ratioP2;P2;SDS_P1;SDS_P2;PMS_P1;PMS_P2;Temp;Humidity;BMP_temperature;BMP_pressure;BME280_temperature;BME280_humidity;BME280_pressure;Samples;Min_cycle;Max_cycle;Signal;HPM_P1;HPM_P2
2022/11/26 00:00:52;;;;;;;41.20;23.85;;;;;;;4.18;100.00;102429.28;5102732;28;20069;-78
2022/11/26 00:03:18;;;;;;;44.63;23.58;;;;;;;4.14;100.00;102432.53;5105367;28;20055;-77
2022/11/26 00:05:47;;;;;;;43.05;23.00;;;;;;;4.11;100.00;102434.09;5102103;28;20036;-78
2022/11/26 00:08:15;;;;;;;41.80;23.38;;;;;;;4.14;100.00;102443.00;5098155;28;20467;-78
2022/11/26 00:10:41;;;;;;;43.65;23.23;;;;;;;4.08;100.00;102437.44;5105810;28;20036;-76
2022/11/26 00:13:15;;;;;;;41.03;22.80;;;;;;;4.02;100.00;102437.09;5102483;28;20056;-78
2022/11/26 00:15:40;;;;;;;40.92;23.25;;;;;;;3.99;100.00;102435.22;5105012;28;20036;-75
2022/11/26 00:18:05;;;;;;;41.00;22.67;;;;;;;3.97;100.00;102435.94;5102877;28;20098;-77
2022/11/26 00:20:31;;;;;;;40.17;22.83;;;;;;;3.97;100.00;102439.44;5103634;28;20028;-76
2022/11/26 00:23:00;;;;;;;42.10;23.20;;;;;;;3.94;100.00;102448.84;5103850;28;20023;-78
2022/11/26 00:25:32;;;;;;;42.53;23.88;;;;;;;3.93;100.00;102450.56;5103163;28;20360;-79
2022/11/26 00:27:57;;;;;;;41.97;23.00;;;;;;;3.88;100.00;102445.88;5102962;28;20031;-74
2022/11/26 00:30:26;;;;;;;40.42;22.45;;;;;;;3.83;100.00;102448.25;5102547;28;20016;-75
2022/11/26 00:32:54;;;;;;;41.40;22.70;;;;;;;3.80;100.00;102448.03;5104327;28;20114;-79
2022/11/26 00:35:20;;;;;;;40.85;22.00;;;;;;;3.79;100.00;102447.16;5101930;28;20024;-73
2022/11/26 00:37:55;;;;;;;41.25;23.50;;;;;;;3.79;100.00;102448.88;5104876;28;20051;-78
2022/11/26 00:40:27;;;;;;;38.65;23.42;;;;;;;3.74;100.00;102445.06;5097651;28;20020;-68
2022/11/26 00:42:53;;;;;;;41.38;23.63;;;;;;;3.74;100.00;102442.47;5104293;28;20041;-78
2022/11/26 00:45:21;;;;;;;44.45;24.65;;;;;;;3.73;100.00;102448.50;5101785;28;20089;-70
2022/11/26 00:47:47;;;;;;;39.13;23.15;;;;;;;3.71;100.00;102453.63;5103505;28;20112;-71
2022/11/26 00:50:15;;;;;;;42.65;24.08;;;;;;;3.70;100.00;102450.94;5097428;28;20471;-69
2022/11/26 00:52:42;;;;;;;41.47;23.67;;;;;;;3.69;100.00;102450.03;5104517;28;20597;-70
2022/11/26 00:55:33;;;;;;;43.53;23.77;;;;;;;3.66;100.00;102465.56;5101886;28;20122;-70
2022/11/26 00:57:59;;;;;;;42.40;23.75;;;;;;;3.62;100.00;102458.34;5100921;28;20470;-69
2022/11/26 01:00:27;;;;;;;43.08;23.98;;;;;;;3.59;100.00;102463.41;5103796;28;20038;-70
2022/11/26 01:02:53;;;;;;;42.03;23.80;;;;;;;3.52;100.00;102456.00;5101991;28;20024;-69
2022/11/26 01:05:21;;;;;;;46.42;25.13;;;;;;;3.51;100.00;102464.66;5103085;28;20028;-71
2022/11/26 01:07:46;;;;;;;45.33;26.00;;;;;;;3.49;100.00;102472.41;5105425;28;20019;-71
2022/11/26 01:10:21;;;;;;;43.08;25.35;;;;;;;3.45;100.00;102465.19;5101087;28;20107;-71
2022/11/26 01:12:47;;;;;;;43.03;25.65;;;;;;;3.44;100.00;102466.91;5097220;28;20117;-69
2022/11/26 01:15:14;;;;;;;43.58;25.90;;;;;;;3.36;100.00;102469.88;5096870;28;20040;-70
2022/11/26 01:17:39;;;;;;;45.83;27.80;;;;;;;3.40;100.00;102458.81;5104352;28;20566;-70
2022/11/26 01:20:20;;;;;;;46.22;27.17;;;;;;;3.36;100.00;102459.44;5101910;28;20111;-70
2022/11/26 01:22:46;;;;;;;47.80;27.23;;;;;;;3.36;100.00;102454.19;5097286;28;20111;-72
2022/11/26 01:25:12;;;;;;;43.45;27.15;;;;;;;3.33;100.00;102454.03;5104983;28;20159;-70
2022/11/26 01:27:37;;;;;;;44.42;26.77;;;;;;;3.36;100.00;102457.69;5101883;28;20047;-70
2022/11/26 01:30:03;;;;;;;47.35;27.08;;;;;;;3.33;100.00;102454.91;5101916;28;20061;-70
2022/11/26 01:32:28;;;;;;;44.00;27.17;;;;;;;3.28;100.00;102456.38;5101621;28;20085;-69
2022/11/26 01:34:54;;;;;;;44.42;26.45;;;;;;;3.26;100.00;102453.66;5100642;28;20038;-69
2022/11/26 01:37:19;;;;;;;47.85;26.60;;;;;;;3.23;100.00;102456.09;5104065;28;20093;-70
2022/11/26 01:39:44;;;;;;;50.80;26.60;;;;;;;3.22;100.00;102461.19;5104323;28;20059;-71
2022/11/26 01:42:41;;;;;;;46.65;28.38;;;;;;;3.14;100.00;102463.38;5106674;28;20039;-70
2022/11/26 01:45:17;;;;;;;46.00;27.30;;;;;;;3.02;100.00;102458.31;5106722;28;20105;-70
2022/11/26 01:47:47;;;;;;;47.55;26.98;;;;;;;2.99;100.00;102460.72;5105022;28;20024;-70
2022/11/26 01:50:28;;;;;;;46.55;27.33;;;;;;;2.96;100.00;102474.50;5108646;28;20062;-70
2022/11/26 01:52:57;;;;;;;48.92;27.38;;;;;;;2.94;100.00;102480.44;5102422;28;20466;-69
2022/11/26 01:55:23;;;;;;;46.88;29.02;;;;;;;2.92;100.00;102497.72;5107512;28;20055;-70
2022/11/26 01:57:49;;;;;;;47.67;29.08;;;;;;;2.90;100.00;102494.13;5104905;28;20028;-72
2022/11/26 02:00:15;;;;;;;51.28;29.05;;;;;;;2.89;100.00;102484.50;5107935;28;20024;-70
2022/11/26 02:02:42;;;;;;;45.35;29.77;;;;;;;2.98;100.00;102477.19;5104747;28;20520;-70
2022/11/26 02:05:30;;;;;;;46.17;29.77;;;;;;;2.97;100.00;102486.75;5106933;28;20054;-72
2022/11/26 02:07:56;;;;;;;50.25;30.80;;;;;;;2.97;100.00;102478.00;5103073;28;20020;-70
2022/11/26 02:10:22;;;;;;;49.20;30.98;;;;;;;2.92;100.00;102495.13;5107246;28;20039;-70
2022/11/26 02:12:49;;;;;;;52.63;30.02;;;;;;;2.95;100.00;102490.97;5104152;28;20051;-70
2022/11/26 02:15:15;;;;;;;47.25;30.98;;;;;;;2.94;100.00;102496.09;5100267;28;20036;-69
2022/11/26 02:17:54;;;;;;;49.58;30.20;;;;;;;2.94;100.00;102498.72;5107417;28;20032;-71
2022/11/26 02:20:40;;;;;;;50.28;31.10;;;;;;;3.01;100.00;102503.50;5100993;28;20028;-71
2022/11/26 02:23:14;;;;;;;53.47;32.35;;;;;;;3.04;100.00;102501.09;5104983;28;20098;-69
2022/11/26 02:25:49;;;;;;;55.45;33.15;;;;;;;3.03;100.00;102503.59;5107165;28;20118;-70
2022/11/26 02:28:48;;;;;;;52.03;31.75;;;;;;;3.03;100.00;102507.16;5100104;28;20036;-71
2022/11/26 02:31:23;;;;;;;52.42;32.38;;;;;;;3.06;100.00;102506.41;5100256;28;20059;-70
2022/11/26 02:34:08;;;;;;;49.97;31.40;;;;;;;3.05;100.00;102507.25;5100387;28;20028;-72
2022/11/26 02:37:04;;;;;;;53.40;32.45;;;;;;;3.01;100.00;102508.75;5105279;28;20501;-71
2022/11/26 02:39:29;;;;;;;52.45;32.58;;;;;;;2.99;100.00;102504.25;5103579;28;20060;-71
2022/11/26 02:41:58;;;;;;;54.17;32.40;;;;;;;2.97;100.00;102493.69;5106352;28;20043;-71
2022/11/26 02:44:41;;;;;;;53.20;31.67;;;;;;;2.97;100.00;102493.69;5104700;28;20063;-70
2022/11/26 02:47:12;;;;;;;55.55;32.90;;;;;;;2.97;100.00;102501.50;5104608;28;20028;-70
2022/11/26 02:49:41;;;;;;;52.88;33.17;;;;;;;2.94;100.00;102510.09;5105633;28;20618;-70
2022/11/26 02:52:10;;;;;;;57.05;32.42;;;;;;;2.90;100.00;102507.19;5104594;28;20022;-70
2022/11/26 02:54:37;;;;;;;51.25;31.25;;;;;;;2.86;100.00;102510.44;5104553;28;20443;-71
2022/11/26 02:57:08;;;;;;;53.13;32.25;;;;;;;2.87;100.00;102517.44;5104882;28;20028;-71
2022/11/26 02:59:34;;;;;;;53.33;32.33;;;;;;;2.86;100.00;102513.03;5105572;28;20030;-71
2022/11/26 03:02:05;;;;;;;55.75;33.00;;;;;;;2.87;100.00;102520.03;5105107;28;20036;-71
2022/11/26 03:04:38;;;;;;;54.58;31.55;;;;;;;2.82;100.00;102516.25;5103584;28;20032;-71
2022/11/26 03:07:06;;;;;;;51.38;30.42;;;;;;;2.76;100.00;102517.66;5104599;28;20016;-71
2022/11/26 03:09:53;;;;;;;52.85;30.70;;;;;;;2.85;100.00;102522.56;5105089;28;20032;-77
2022/11/26 03:12:19;;;;;;;59.28;34.03;;;;;;;2.94;100.00;102527.47;5099730;28;20040;-78
2022/11/26 03:14:45;;;;;;;52.58;32.53;;;;;;;2.95;100.00;102531.88;5106803;28;20030;-78
2022/11/26 03:17:10;;;;;;;55.17;32.05;;;;;;;2.89;100.00;102528.91;5103394;28;20479;-77
2022/11/26 03:19:36;;;;;;;56.45;32.00;;;;;;;2.93;100.00;102541.34;5105506;28;20071;-79
2022/11/26 03:22:02;;;;;;;53.42;31.75;;;;;;;2.93;100.00;102546.56;5104570;28;20033;-78
2022/11/26 03:24:27;;;;;;;56.28;31.35;;;;;;;2.93;100.00;102547.47;5103967;28;20444;-77
2022/11/26 03:26:52;;;;;;;57.45;32.75;;;;;;;2.95;100.00;102534.50;5105916;28;20023;-77
2022/11/26 03:29:18;;;;;;;54.80;32.25;;;;;;;2.94;100.00;102537.91;5102765;28;20036;-78
2022/11/26 03:31:43;;;;;;;57.80;31.65;;;;;;;2.88;100.00;102537.53;5087994;28;20031;-78
2022/11/26 03:34:08;;;;;;;55.15;32.50;;;;;;;2.86;100.00;102549.59;5103313;28;20068;-78
2022/11/26 03:36:34;;;;;;;55.80;31.77;;;;;;;2.87;100.00;102552.31;5104627;28;20051;-77
2022/11/26 03:38:59;;;;;;;55.72;32.63;;;;;;;2.92;100.00;102556.09;5104752;28;20047;-78
2022/11/26 03:41:24;;;;;;;52.88;31.45;;;;;;;2.95;100.00;102544.94;5103486;28;20031;-78
2022/11/26 03:43:50;;;;;;;54.55;31.48;;;;;;;2.87;100.00;102541.88;5105719;27;20039;-79
2022/11/26 03:46:15;;;;;;;56.10;32.20;;;;;;;2.87;100.00;102541.88;5102648;28;20024;-79
2022/11/26 03:48:40;;;;;;;56.72;32.03;;;;;;;2.81;100.00;102543.19;5105382;28;20024;-79
2022/11/26 03:51:06;;;;;;;55.55;30.48;;;;;;;2.82;100.00;102550.22;5103411;27;20051;-77
2022/11/26 03:53:31;;;;;;;59.80;32.70;;;;;;;2.77;100.00;102547.31;5102758;28;20120;-70
2022/11/26 03:55:56;;;;;;;54.60;31.05;;;;;;;2.75;100.00;102555.06;5104669;28;20019;-71
2022/11/26 03:58:22;;;;;;;57.63;32.17;;;;;;;2.66;100.00;102551.84;5102516;28;20050;-70
2022/11/26 04:00:47;;;;;;;57.35;31.23;;;;;;;2.66;100.00;102546.63;5105737;28;20028;-70
2022/11/26 04:03:12;;;;;;;52.28;30.02;;;;;;;2.69;100.00;102546.81;5101282;28;20028;-71
2022/11/26 04:05:38;;;;;;;60.03;31.40;;;;;;;2.66;100.00;102557.06;5104943;28;20028;-70
2022/11/26 04:08:03;;;;;;;52.88;30.05;;;;;;;2.69;100.00;102557.25;5102484;28;20066;-70
2022/11/26 04:10:29;;;;;;;55.55;30.30;;;;;;;2.70;100.00;102561.69;5103320;28;20016;-69
2022/11/26 04:12:54;;;;;;;53.45;30.48;;;;;;;2.70;100.00;102559.06;5104741;28;20047;-69
2022/11/26 04:15:19;;;;;;;58.83;31.35;;;;;;;2.67;100.00;102564.09;5101705;28;20111;-70
2022/11/26 04:17:45;;;;;;;51.70;30.30;;;;;;;2.70;100.00;102572.13;5105952;28;20043;-70
2022/11/26 04:20:10;;;;;;;52.70;30.08;;;;;;;2.70;100.00;102566.00;5104953;28;20035;-69
2022/11/26 04:22:36;;;;;;;59.80;30.17;;;;;;;2.75;100.00;102583.78;5103102;28;20099;-69
2022/11/26 04:25:01;;;;;;;54.15;30.20;;;;;;;2.80;100.00;102576.25;5103391;28;20035;-70
2022/11/26 04:27:26;;;;;;;60.88;30.33;;;;;;;2.78;100.00;102578.75;5104528;28;20063;-70
2022/11/26 04:29:52;;;;;;;54.75;30.48;;;;;;;2.76;100.00;102575.13;5102261;28;20148;-70
2022/11/26 04:32:17;;;;;;;48.80;29.00;;;;;;;2.75;100.00;102577.66;5105401;28;20040;-69
2022/11/26 04:34:42;;;;;;;57.70;31.15;;;;;;;2.70;100.00;102572.13;5101871;28;20070;-71
2022/11/26 04:37:08;;;;;;;55.45;30.75;;;;;;;2.67;100.00;102573.66;5104384;28;20020;-69
2022/11/26 04:39:33;;;;;;;52.72;29.85;;;;;;;2.58;100.00;102580.09;5103175;28;20027;-70
2022/11/26 04:41:58;;;;;;;60.33;30.70;;;;;;;2.56;100.00;102580.78;5102894;28;20490;-70
2022/11/26 04:44:24;;;;;;;56.08;29.73;;;;;;;2.57;100.00;102572.16;5104341;28;20035;-69
2022/11/26 04:46:49;;;;;;;54.47;30.42;;;;;;;2.58;100.00;102581.81;5100322;28;20036;-70
2022/11/26 04:49:14;;;;;;;55.10;30.90;;;;;;;2.60;100.00;102580.19;5096046;28;20030;-69
2022/11/26 04:51:40;;;;;;;58.70;29.55;;;;;;;2.62;100.00;102583.78;5104159;28;20028;-70
2022/11/26 04:54:05;;;;;;;55.45;30.70;;;;;;;2.57;100.00;102583.50;5102971;28;20059;-70
2022/11/26 04:56:30;;;;;;;50.72;29.02;;;;;;;2.56;100.00;102581.72;5103074;28;20443;-78
2022/11/26 04:58:56;;;;;;;54.97;29.95;;;;;;;2.58;100.00;102584.41;5104076;28;20073;-78
2022/11/26 05:01:21;;;;;;;55.10;29.40;;;;;;;2.57;100.00;102574.75;5101537;28;20031;-78
2022/11/26 05:03:46;;;;;;;55.35;29.75;;;;;;;2.58;100.00;102579.19;5105025;28;20032;-76
2022/11/26 05:06:12;;;;;;;58.92;30.40;;;;;;;2.55;100.00;102577.28;5101630;28;20054;-79
2022/11/26 05:08:37;;;;;;;53.85;29.55;;;;;;;2.51;100.00;102584.81;5103753;28;20024;-78
2022/11/26 05:11:02;;;;;;;57.88;28.67;;;;;;;2.55;100.00;102590.34;5102882;28;20035;-78
2022/11/26 05:13:28;;;;;;;54.65;28.65;;;;;;;2.61;100.00;102588.13;5103547;28;20048;-79
2022/11/26 05:15:53;;;;;;;52.08;29.33;;;;;;;2.62;100.00;102591.63;5108296;28;20020;-78
2022/11/26 05:18:19;;;;;;;55.72;29.00;;;;;;;2.62;100.00;102596.84;5105274;28;20089;-78
2022/11/26 05:20:44;;;;;;;52.85;28.17;;;;;;;2.63;100.00;102598.66;5108898;28;20118;-79
2022/11/26 05:23:10;;;;;;;57.83;28.77;;;;;;;2.63;100.00;102595.16;5105928;28;20043;-79
2022/11/26 05:25:35;;;;;;;52.63;28.48;;;;;;;2.67;100.00;102592.81;5107247;28;20463;-79
2022/11/26 05:28:00;;;;;;;54.33;28.02;;;;;;;2.66;100.00;102593.63;5107218;28;20028;-79
2022/11/26 05:30:26;;;;;;;56.05;28.42;;;;;;;2.60;100.00;102595.84;5105812;28;20034;-79
2022/11/26 05:32:51;;;;;;;53.30;27.70;;;;;;;2.55;100.00;102594.63;5108245;28;20115;-78
2022/11/26 05:35:17;;;;;;;56.95;28.25;;;;;;;2.51;100.00;102604.00;5105164;28;20059;-79
2022/11/26 05:37:42;;;;;;;57.88;28.15;;;;;;;2.50;100.00;102607.38;5107913;28;20146;-79
2022/11/26 05:40:08;;;;;;;55.83;28.85;;;;;;;2.54;100.00;102598.97;5104667;28;20077;-79
2022/11/26 05:42:34;;;;;;;58.20;28.75;;;;;;;2.56;100.00;102602.59;5106942;28;20028;-79
2022/11/26 05:45:00;;;;;;;59.03;29.17;;;;;;;2.55;100.00;102600.78;5106950;28;20534;-70
2022/11/26 05:47:25;;;;;;;53.92;27.92;;;;;;;2.63;100.00;102613.44;5105452;28;20540;-69
2022/11/26 05:49:51;;;;;;;55.40;27.73;;;;;;;2.69;100.00;102609.50;5108227;27;20077;-69
2022/11/26 05:52:16;;;;;;;58.67;27.98;;;;;;;2.68;100.00;102605.09;5104623;28;20036;-71
2022/11/26 05:54:42;;;;;;;58.22;27.60;;;;;;;2.69;100.00;102614.72;5107731;28;20080;-69
2022/11/26 05:57:07;;;;;;;55.05;26.50;;;;;;;2.71;100.00;102614.81;5105838;28;20038;-70
2022/11/26 05:59:32;;;;;;;52.95;27.92;;;;;;;2.74;100.00;102621.16;5106164;28;20020;-70
2022/11/26 06:01:58;;;;;;;50.22;26.65;;;;;;;2.75;100.00;102633.41;5106971;28;20101;-71
2022/11/26 06:04:24;;;;;;;56.20;26.77;;;;;;;2.71;100.00;102628.78;5105026;28;20460;-71
2022/11/26 06:06:49;;;;;;;58.25;28.10;;;;;;;2.67;100.00;102638.94;5107954;28;20467;-71
2022/11/26 06:09:14;;;;;;;52.80;26.33;;;;;;;2.73;100.00;102641.94;5104540;27;20063;-71
2022/11/26 06:11:40;;;;;;;52.05;26.38;;;;;;;2.75;100.00;102636.03;5106788;28;20067;-70
2022/11/26 06:14:05;;;;;;;52.58;26.13;;;;;;;2.79;100.00;102634.50;5105935;28;20040;-70
2022/11/26 06:16:30;;;;;;;52.72;26.15;;;;;;;2.77;100.00;102633.50;5105522;28;20081;-70
2022/11/26 06:18:57;;;;;;;50.08;26.98;;;;;;;2.77;100.00;102639.63;5106982;28;20111;-70
2022/11/26 06:21:23;;;;;;;60.17;27.25;;;;;;;2.79;100.00;102631.88;5104561;28;20032;-71
2022/11/26 06:23:48;;;;;;;53.20;26.95;;;;;;;2.77;100.00;102629.19;5107763;28;20028;-70
2022/11/26 06:26:13;;;;;;;55.58;26.55;;;;;;;2.75;100.00;102630.81;5103114;28;20020;-70
2022/11/26 06:28:39;;;;;;;57.03;26.73;;;;;;;2.72;100.00;102638.44;5106893;28;20054;-70
2022/11/26 06:31:06;;;;;;;51.40;27.40;;;;;;;2.71;100.00;102644.47;5105735;28;20050;-76
2022/11/26 06:33:32;;;;;;;50.08;26.48;;;;;;;2.71;100.00;102647.06;5105271;28;20036;-77
2022/11/26 06:36:01;;;;;;;53.58;26.35;;;;;;;2.67;100.00;102649.41;5106576;28;20386;-73
2022/11/26 06:38:26;;;;;;;52.25;26.17;;;;;;;2.67;100.00;102647.69;5104708;28;20024;-77
2022/11/26 06:41:03;;;;;;;57.63;26.73;;;;;;;2.65;100.00;102640.53;5106939;28;20027;-77
2022/11/26 06:43:29;;;;;;;56.35;27.38;;;;;;;2.61;100.00;102642.94;5104786;28;20476;-77
2022/11/26 06:46:00;;;;;;;56.55;27.80;;;;;;;2.59;100.00;102654.09;5106658;28;20022;-77
2022/11/26 06:48:25;;;;;;;55.65;28.17;;;;;;;2.59;100.00;102651.47;5102997;28;20031;-78
2022/11/26 06:50:51;;;;;;;56.33;28.23;;;;;;;2.56;100.00;102654.81;5107054;28;20036;-77
2022/11/26 06:53:17;;;;;;;55.25;27.80;;;;;;;2.53;100.00;102651.97;5103843;28;20458;-77
2022/11/26 06:55:42;;;;;;;56.10;28.05;;;;;;;2.53;100.00;102658.91;5105140;28;20023;-77
2022/11/26 06:58:08;;;;;;;58.08;27.27;;;;;;;2.49;100.00;102654.28;5104431;28;20032;-77
2022/11/26 07:00:33;;;;;;;55.22;27.52;;;;;;;2.49;100.00;102657.81;5105139;28;20040;-77
2022/11/26 07:02:58;;;;;;;56.67;26.95;;;;;;;2.50;100.00;102653.50;5105725;28;20023;-77
2022/11/26 07:05:24;;;;;;;54.28;27.35;;;;;;;2.50;100.00;102664.84;5103602;28;20085;-77
2022/11/26 07:07:49;;;;;;;54.53;27.17;;;;;;;2.53;100.00;102665.03;5106895;28;20031;-77
2022/11/26 07:10:14;;;;;;;53.70;27.55;;;;;;;2.49;100.00;102676.09;5102036;28;20028;-77
2022/11/26 07:12:40;;;;;;;53.15;26.85;;;;;;;2.43;100.00;102665.22;5105579;28;20058;-78
2022/11/26 07:15:06;;;;;;;53.83;26.85;;;;;;;2.42;100.00;102672.16;5104555;28;20024;-78
2022/11/26 07:17:31;;;;;;;58.40;27.10;;;;;;;2.44;100.00;102683.59;5104209;28;20036;-78
2022/11/26 07:19:56;;;;;;;55.83;26.95;;;;;;;2.41;100.00;102680.78;5105925;28;20027;-78
2022/11/26 07:22:22;;;;;;;57.97;26.73;;;;;;;2.40;100.00;102681.63;5101631;28;20028;-77
2022/11/26 07:24:47;;;;;;;52.25;27.27;;;;;;;2.35;100.00;102690.81;5106345;28;20068;-77
2022/11/26 07:27:12;;;;;;;59.65;27.15;;;;;;;2.33;100.00;102697.66;5103583;28;20386;-74
2022/11/26 07:29:37;;;;;;;57.10;26.42;;;;;;;2.32;100.00;102690.63;5105178;28;20475;-77
2022/11/26 07:32:03;;;;;;;55.72;27.33;;;;;;;2.37;100.00;102698.75;5103389;28;20031;-77
2022/11/26 07:34:28;;;;;;;54.80;27.77;;;;;;;2.36;100.00;102691.72;5102531;28;20031;-77
2022/11/26 07:36:54;;;;;;;53.78;27.88;;;;;;;2.37;100.00;102694.44;5105510;28;20031;-71
2022/11/26 07:39:19;;;;;;;58.42;28.55;;;;;;;2.42;100.00;102700.88;5081065;28;20041;-70
2022/11/26 07:41:44;;;;;;;58.45;28.80;;;;;;;2.48;100.00;102689.94;5105482;28;20038;-70
2022/11/26 07:44:13;;;;;;;57.30;28.73;;;;;;;2.54;100.00;102697.28;5102239;28;20227;-71
2022/11/26 07:46:39;;;;;;;55.35;29.15;;;;;;;2.59;100.00;102685.44;5104808;28;20103;-69
2022/11/26 07:49:05;;;;;;;61.22;31.08;;;;;;;2.61;100.00;102696.91;5104145;28;20153;-69
2022/11/26 07:51:32;;;;;;;61.13;31.98;;;;;;;2.64;100.00;102691.88;5103742;28;20161;-71
2022/11/26 07:53:58;;;;;;;65.97;33.47;;;;;;;2.68;100.00;102695.56;5104911;28;20023;-69
2022/11/26 07:56:24;;;;;;;66.35;34.55;;;;;;;2.73;100.00;102692.47;5102809;28;20035;-69
2022/11/26 07:58:50;;;;;;;67.57;35.33;;;;;;;2.75;100.00;102690.88;5105693;28;20028;-69
2022/11/26 08:01:18;;;;;;;65.47;34.75;;;;;;;2.83;100.00;102691.38;5102432;28;20024;-70
2022/11/26 08:03:46;;;;;;;67.93;34.97;;;;;;;2.88;100.00;102696.91;5105332;28;20027;-70
2022/11/26 08:06:14;;;;;;;70.35;36.88;;;;;;;2.95;100.00;102691.25;5102649;28;20103;-70
2022/11/26 08:08:41;;;;;;;71.70;37.83;;;;;;;3.06;100.00;102700.72;5104656;28;20432;-70
2022/11/26 08:11:21;;;;;;;68.28;37.55;;;;;;;3.13;100.00;102702.91;5103568;28;20076;-71
2022/11/26 08:13:48;;;;;;;75.22;37.75;;;;;;;3.23;100.00;102698.25;5105373;28;20040;-70
2022/11/26 08:16:14;;;;;;;69.38;37.28;;;;;;;3.32;100.00;102706.72;5102267;28;20020;-69
2022/11/26 08:18:40;;;;;;;65.78;36.53;;;;;;;3.43;100.00;102707.38;5104456;28;20048;-72
2022/11/26 08:21:05;;;;;;;66.85;37.17;;;;;;;3.48;100.00;102706.88;5093811;28;20422;-66
2022/11/26 08:23:32;;;;;;;67.20;36.88;;;;;;;3.54;100.00;102698.50;5092436;28;20367;-65
2022/11/26 08:25:57;;;;;;;67.43;37.00;;;;;;;3.58;100.00;102710.97;5098726;28;20023;-66
2022/11/26 08:28:23;;;;;;;69.60;37.83;;;;;;;3.62;100.00;102714.66;5096335;28;20032;-68
2022/11/26 08:30:48;;;;;;;63.97;37.80;;;;;;;3.65;100.00;102704.41;5098391;28;20027;-69
2022/11/26 08:33:14;;;;;;;65.25;35.97;;;;;;;3.70;100.00;102713.44;5098857;28;20035;-70
2022/11/26 08:35:40;;;;;;;65.20;36.55;;;;;;;3.73;100.00;102716.25;5096416;28;20024;-70
2022/11/26 08:38:05;;;;;;;60.17;35.40;;;;;;;3.78;100.00;102716.53;5100358;28;20046;-70
2022/11/26 08:40:31;;;;;;;65.63;36.42;;;;;;;3.80;100.00;102722.75;5097000;28;20028;-68
2022/11/26 08:42:56;;;;;;;61.05;35.42;;;;;;;3.80;100.00;102715.81;5094818;28;20027;-66
2022/11/26 08:45:22;;;;;;;62.17;35.42;;;;;;;3.87;100.00;102724.03;5097873;28;20032;-76
2022/11/26 08:47:47;;;;;;;62.78;35.67;;;;;;;3.89;100.00;102725.03;5097206;28;20064;-66
2022/11/26 08:50:14;;;;;;;63.30;34.72;;;;;;;3.93;100.00;102721.78;5097465;28;21610;-68
2022/11/26 08:52:40;;;;;;;62.08;34.85;;;;;;;3.96;100.00;102721.97;5097198;28;20028;-69
2022/11/26 08:55:05;;;;;;;60.22;34.40;;;;;;;4.04;100.00;102719.84;5104371;28;20042;-71
2022/11/26 08:57:30;;;;;;;59.53;33.88;;;;;;;4.07;100.00;102723.53;5101407;28;20032;-70
2022/11/26 08:59:56;;;;;;;57.95;32.72;;;;;;;4.14;100.00;102723.09;5102890;28;20459;-71
2022/11/26 09:02:22;;;;;;;56.17;32.92;;;;;;;4.22;100.00;102722.66;5103371;28;20038;-70
2022/11/26 09:04:47;;;;;;;55.50;31.48;;;;;;;4.26;100.00;102724.66;5102003;28;20054;-73
2022/11/26 09:07:13;;;;;;;57.22;31.20;;;;;;;4.29;100.00;102727.47;5104478;28;20046;-75
2022/11/26 09:09:38;;;;;;;50.88;30.52;;;;;;;4.32;100.00;102723.31;5101157;28;20512;-74
2022/11/26 09:12:04;;;;;;;52.35;30.02;;;;;;;4.36;100.00;102732.25;5104213;28;20096;-70
2022/11/26 09:14:34;;;;;;;53.35;29.80;;;;;;;4.40;100.00;102739.50;5101008;28;20041;-71
2022/11/26 09:17:00;;;;;;;49.70;29.38;;;;;;;4.42;100.00;102742.19;5103751;28;20032;-75
2022/11/26 09:19:26;;;;;;;52.63;29.42;;;;;;;4.48;100.00;102742.56;5102565;28;20060;-70
2022/11/26 09:21:52;;;;;;;52.28;28.23;;;;;;;4.51;100.00;102740.13;5102647;28;20058;-74
2022/11/26 09:24:18;;;;;;;54.92;28.48;;;;;;;4.55;100.00;102739.50;5102479;28;20028;-72
2022/11/26 09:26:43;;;;;;;49.47;27.50;;;;;;;4.60;100.00;102747.63;5101092;28;20028;-70
2022/11/26 09:29:12;;;;;;;49.65;26.10;;;;;;;4.66;100.00;102750.59;5104701;28;20031;-71
2022/11/26 09:31:38;;;;;;;46.45;24.83;;;;;;;4.71;100.00;102752.69;5096881;28;20020;-71
2022/11/26 09:34:03;;;;;;;46.88;25.27;;;;;;;4.82;100.00;102757.63;5103735;28;20432;-71
2022/11/26 09:36:29;;;;;;;43.88;23.33;;;;;;;4.89;100.00;102760.72;5102275;28;20089;-72
2022/11/26 09:38:58;;;;;;;41.65;22.83;;;;;;;5.00;100.00;102765.69;5102458;28;20020;-71
2022/11/26 09:41:26;;;;;;;41.70;22.55;;;;;;;5.05;100.00;102758.97;5102824;28;20439;-71
2022/11/26 09:44:22;;;;;;;40.65;21.52;;;;;;;5.13;100.00;102773.44;5102175;28;20352;-70
2022/11/26 09:46:54;;;;;;;44.08;20.80;;;;;;;5.17;100.00;102761.38;5098824;28;20039;-71
2022/11/26 09:49:20;;;;;;;44.22;21.48;;;;;;;5.25;100.00;102749.63;5103474;28;20125;-71
2022/11/26 09:51:51;;;;;;;38.70;20.23;;;;;;;5.30;100.00;102758.69;5101118;28;20073;-74
2022/11/26 09:54:20;;;;;;;37.53;19.50;;;;;;;5.36;100.00;102752.88;5103741;28;20386;-72
2022/11/26 09:56:49;;;;;;;35.72;18.00;;;;;;;5.41;100.00;102740.91;5101156;28;20020;-72
2022/11/26 09:59:17;;;;;;;36.30;18.80;;;;;;;5.45;100.00;102744.63;5104942;28;20031;-72
2022/11/26 10:01:43;;;;;;;35.50;17.92;;;;;;;5.47;100.00;102738.63;5104430;28;20037;-72
2022/11/26 10:04:20;;;;;;;37.63;18.00;;;;;;;5.54;100.00;102748.63;5107915;28;20034;-70
2022/11/26 10:07:00;;;;;;;35.25;17.80;;;;;;;5.62;100.00;102749.06;5102082;28;20020;-75
2022/11/26 10:09:37;;;;;;;33.95;17.48;;;;;;;5.70;100.00;102749.47;5106270;28;20028;-74
2022/11/26 10:12:25;;;;;;;33.00;16.67;;;;;;;5.81;100.00;102757.94;5107080;28;20055;-74
2022/11/26 10:15:09;;;;;;;35.60;16.65;;;;;;;5.85;100.00;102754.66;5103170;28;20024;-72
2022/11/26 10:17:56;;;;;;;37.15;17.40;;;;;;;5.97;100.00;102757.03;5104740;28;20084;-74
2022/11/26 10:20:42;;;;;;;35.15;17.05;;;;;;;6.03;100.00;102758.31;5101757;28;20032;-74
2022/11/26 10:23:16;;;;;;;36.00;16.90;;;;;;;6.27;100.00;102757.81;5099020;28;20035;-74
2022/11/26 10:25:47;;;;;;;35.22;15.38;;;;;;;6.59;100.00;102748.06;5104178;28;20024;-74
2022/11/26 10:28:20;;;;;;;34.13;14.43;;;;;;;7.01;100.00;102752.78;5105117;28;20100;-75
2022/11/26 10:30:55;;;;;;;33.40;14.43;;;;;;;7.56;100.00;102750.16;5106148;28;20042;-74
2022/11/26 10:33:21;;;;;;;31.02;13.45;;;;;;;7.94;100.00;102743.13;5102870;28;20470;-75
2022/11/26 10:35:48;;;;;;;29.08;12.23;;;;;;;8.26;100.00;102746.31;5106475;28;20084;-74
2022/11/26 10:38:13;;;;;;;30.13;12.05;;;;;;;8.30;100.00;102732.44;5105124;28;20398;-74
2022/11/26 10:40:39;;;;;;;29.80;12.45;;;;;;;8.27;100.00;102732.31;5105400;28;20032;-74
2022/11/26 10:43:04;;;;;;;28.92;11.10;;;;;;;8.17;100.00;102735.38;5106322;28;20027;-74
2022/11/26 10:45:39;;;;;;;28.33;11.35;;;;;;;7.89;100.00;102727.94;5103792;28;20028;-75
2022/11/26 10:48:23;;;;;;;27.38;10.95;;;;;;;7.85;100.00;102732.19;5106436;28;20035;-76
2022/11/26 10:51:18;;;;;;;28.65;11.05;;;;;;;8.13;100.00;102722.91;5106519;28;20020;-75
2022/11/26 10:53:49;;;;;;;28.65;10.63;;;;;;;8.82;100.00;102728.50;5104114;28;20028;-77
2022/11/26 10:56:25;;;;;;;26.38;11.00;;;;;;;9.45;100.00;102723.97;5104989;28;20016;-75
2022/11/26 10:58:51;;;;;;;27.15;10.27;;;;;;;9.56;100.00;102727.94;5106647;28;20101;-76
2022/11/26 11:01:18;;;;;;;26.02;9.45;;;;;;;9.76;100.00;102728.69;5104132;28;20027;-71
2022/11/26 11:03:52;;;;;;;27.58;9.60;;;;;;;10.25;100.00;102735.78;5105253;28;20063;-72
2022/11/26 11:06:17;;;;;;;28.38;9.32;;;;;;;10.79;100.00;102729.72;5104245;28;20023;-76
2022/11/26 11:08:43;;;;;;;26.25;9.23;;;;;;;11.56;100.00;102715.34;5105179;28;20424;-74
2022/11/26 11:11:17;;;;;;;24.50;8.77;;;;;;;12.14;100.00;102715.28;5104511;28;20035;-73
2022/11/26 11:13:46;;;;;;;25.08;8.43;;;;;;;12.21;100.00;102723.44;5105002;28;20052;-74